Time;durP1;ratioP1;P1;durP2;ratioP2;P2;SDS_P1;SDS_P2;PMS_P1;PMS_P2;Temp;Humidity;BMP_temperature;BMP_pressure;BME280_temperature;BME280_humidity;BME280_pressure;Samples;Min_cycle;Max_cycle;Signal;HPM_P1;HPM_P2
2023/04/24 00:01:58;;;;;;;20.10;13.90;;;;;;;11.57;48.87;100193.00;109209;1256;58175;-67
2023/04/24 00:04:25;;;;;;;19.60;13.00;;;;;;;11.52;49.07;100190.41;109238;1257;58116;-67
2023/04/24 00:06:56;;;;;;;24.30;12.80;;;;;;;11.47;49.25;100194.67;109139;1256;67205;-67
2023/04/24 00:09:24;;;;;;;21.00;12.80;;;;;;;11.44;49.00;100195.55;109259;1255;60467;-68
2023/04/24 00:11:51;;;;;;;18.50;11.90;;;;;;;11.40;49.20;100197.29;109206;1256;66002;-68
2023/04/24 00:14:18;;;;;;;17.30;11.80;;;;;;;11.35;49.49;100194.92;109082;1255;58121;-68
2023/04/24 00:16:45;;;;;;;18.90;12.10;;;;;;;11.31;49.21;100196.09;109243;1255;58149;-66
2023/04/24 00:19:12;;;;;;;16.70;11.80;;;;;;;11.29;48.98;100194.84;109213;1256;67380;-66
2023/04/24 00:21:40;;;;;;;17.00;11.20;;;;;;;11.25;49.22;100196.43;109238;1256;60561;-66
2023/04/24 00:24:10;;;;;;;19.30;12.60;;;;;;;11.20;49.67;100194.98;109042;1258;65215;-68
2023/04/24 00:26:37;;;;;;;16.60;10.80;;;;;;;11.16;50.12;100193.30;109075;1257;58257;-70
2023/04/24 00:29:04;;;;;;;17.80;11.10;;;;;;;11.13;50.38;100190.10;109120;1256;58243;-66
2023/04/24 00:31:31;;;;;;;18.90;10.40;;;;;;;11.10;50.32;100191.05;109247;1255;67109;-66
2023/04/24 00:33:58;;;;;;;16.20;10.60;;;;;;;11.08;50.11;100190.14;109156;1257;58602;-67
2023/04/24 00:36:26;;;;;;;17.40;10.50;;;;;;;11.07;50.15;100190.41;109207;1256;65316;-66
2023/04/24 00:38:54;;;;;;;18.90;10.30;;;;;;;11.06;50.11;100195.55;109162;1256;58145;-66
2023/04/24 00:41:22;;;;;;;14.60;9.90;;;;;;;11.07;49.76;100197.11;109138;1256;58213;-66
2023/04/24 00:43:50;;;;;;;15.80;9.60;;;;;;;11.05;49.67;100193.44;109189;1257;67447;-66
2023/04/24 00:46:17;;;;;;;14.90;10.20;;;;;;;11.02;49.85;100195.79;109137;1256;61075;-66
2023/04/24 00:48:44;;;;;;;14.40;9.90;;;;;;;11.02;49.93;100190.83;109153;1257;65942;-67
2023/04/24 00:51:11;;;;;;;16.90;10.50;;;;;;;11.04;49.97;100190.13;109066;1258;58097;-66
2023/04/24 00:53:38;;;;;;;16.50;10.50;;;;;;;11.04;50.20;100191.93;108995;1255;277137;-66
2023/04/24 00:56:05;;;;;;;15.10;9.90;;;;;;;11.02;50.10;100191.18;109147;1256;67405;-66
2023/04/24 00:58:32;;;;;;;18.00;10.40;;;;;;;10.99;50.26;100186.16;109159;1256;59383;-67
2023/04/24 01:01:00;;;;;;;16.90;10.50;;;;;;;10.95;50.44;100185.22;109091;1255;66196;-67
2023/04/24 01:03:29;;;;;;;14.30;10.10;;;;;;;10.91;50.69;100185.91;109099;1255;58123;-66
2023/04/24 01:05:57;;;;;;;16.60;10.70;;;;;;;10.89;50.74;100183.45;109132;1257;58265;-66
2023/04/24 01:08:25;;;;;;;15.30;10.10;;;;;;;10.88;50.51;100187.01;109194;1256;67425;-66
2023/04/24 01:10:52;;;;;;;16.50;9.90;;;;;;;10.88;50.61;100181.78;109128;1257;60758;-68
2023/04/24 01:13:19;;;;;;;14.70;10.30;;;;;;;10.88;50.79;100179.10;108992;1257;66015;-66
2023/04/24 01:15:46;;;;;;;22.70;10.40;;;;;;;10.88;50.73;100182.25;109154;1256;58138;-66
2023/04/24 01:18:14;;;;;;;16.80;9.60;;;;;;;10.88;50.84;100181.44;109184;1257;58500;-67
2023/04/24 01:20:42;;;;;;;16.00;9.80;;;;;;;10.86;50.79;100181.02;108991;1256;66147;-66
2023/04/24 01:23:09;;;;;;;16.00;9.50;;;;;;;10.84;50.80;100182.48;109008;1256;59517;-66
2023/04/24 01:25:36;;;;;;;17.00;9.70;;;;;;;10.81;51.00;100180.77;109102;1257;66603;-68
2023/04/24 01:28:03;;;;;;;13.50;9.40;;;;;;;10.80;51.11;100181.40;109156;1256;58171;-66
2023/04/24 01:30:31;;;;;;;14.90;9.70;;;;;;;10.80;51.25;100180.70;109192;1256;58199;-66
2023/04/24 01:32:58;;;;;;;14.80;10.00;;;;;;;10.79;51.49;100179.03;109160;1257;75644;-66
2023/04/24 01:35:25;;;;;;;17.50;9.90;;;;;;;10.76;51.69;100178.94;108990;1256;59295;-66
2023/04/24 01:37:52;;;;;;;15.30;9.40;;;;;;;10.72;51.64;100181.52;109022;1257;66192;-66
2023/04/24 01:40:19;;;;;;;16.10;9.60;;;;;;;10.68;51.75;100180.27;109063;1257;58181;-68
2023/04/24 01:42:46;;;;;;;15.90;9.30;;;;;;;10.67;51.55;100176.86;109171;1257;58044;-66
2023/04/24 01:45:13;;;;;;;14.10;9.40;;;;;;;10.63;51.35;100175.64;109160;1256;67224;-66
2023/04/24 01:47:40;;;;;;;16.70;9.20;;;;;;;10.57;51.44;100173.59;109048;1256;60448;-66
2023/04/24 01:50:08;;;;;;;15.70;9.10;;;;;;;10.52;51.60;100173.69;109094;1257;65148;-67
2023/04/24 01:52:35;;;;;;;13.60;9.20;;;;;;;10.46;51.57;100173.80;109084;1256;58134;-66
2023/04/24 01:55:03;;;;;;;15.80;9.60;;;;;;;10.39;51.75;100171.58;109094;1257;58030;-66
2023/04/24 01:57:31;;;;;;;14.20;8.90;;;;;;;10.32;51.69;100167.20;109139;1256;67231;-66
2023/04/24 01:59:58;;;;;;;10.70;8.50;;;;;;;10.24;51.79;100166.13;109127;1257;59455;-66
2023/04/24 02:02:27;;;;;;;13.80;8.20;;;;;;;10.11;51.92;100166.09;109080;1256;66385;-66
2023/04/24 02:04:56;;;;;;;13.40;8.70;;;;;;;9.98;52.25;100163.95;109116;1257;58163;-66
2023/04/24 02:07:23;;;;;;;13.70;8.90;;;;;;;9.89;52.84;100164.73;109141;1256;58296;-66
2023/04/24 02:09:50;;;;;;;13.80;9.10;;;;;;;9.85;53.10;100165.95;109135;1257;67338;-66
2023/04/24 02:12:17;;;;;;;13.40;8.30;;;;;;;9.84;53.13;100167.09;109139;1256;60554;-66
2023/04/24 02:14:44;;;;;;;13.80;8.30;;;;;;;9.80;53.22;100171.39;109182;1256;66139;-67
2023/04/24 02:17:12;;;;;;;12.90;7.20;;;;;;;9.77;53.23;100178.70;109091;1257;58119;-66
2023/04/24 02:19:40;;;;;;;17.50;8.60;;;;;;;9.71;53.26;100179.18;109100;1257;58054;-66
2023/04/24 02:22:07;;;;;;;11.70;7.40;;;;;;;9.64;53.33;100173.70;109153;1255;66181;-66
2023/04/24 02:24:33;;;;;;;13.00;7.30;;;;;;;9.57;53.50;100173.90;109158;1257;59364;-66
2023/04/24 02:27:02;;;;;;;13.90;7.60;;;;;;;9.49;53.75;100170.34;109166;1256;65277;-66
2023/04/24 02:29:29;;;;;;;12.80;7.10;;;;;;;9.44;53.99;100169.71;109027;1256;58210;-66
2023/04/24 02:31:57;;;;;;;12.40;7.40;;;;;;;9.41;54.27;100170.95;109148;1256;58014;-67
2023/04/24 02:34:24;;;;;;;12.70;7.60;;;;;;;9.38;54.35;100168.20;109058;1256;66253;-66
2023/04/24 02:36:53;;;;;;;11.50;7.10;;;;;;;9.37;54.61;100167.80;109170;1257;59472;-66
2023/04/24 02:39:20;;;;;;;12.20;7.00;;;;;;;9.35;54.82;100162.79;109050;1256;66114;-66
2023/04/24 02:41:47;;;;;;;13.30;7.40;;;;;;;9.33;55.08;100161.43;109065;1256;58202;-66
2023/04/24 02:44:17;;;;;;;11.20;7.00;;;;;;;9.30;55.21;100164.77;109072;1260;58138;-66
2023/04/24 02:46:44;;;;;;;14.00;7.50;;;;;;;9.31;55.15;100169.82;109183;1257;66150;-66
2023/04/24 02:49:11;;;;;;;12.60;7.50;;;;;;;9.30;55.05;100173.56;109150;1256;59576;-66
2023/04/24 02:51:40;;;;;;;11.20;7.30;;;;;;;9.30;55.11;100176.89;109088;1256;66214;-67
2023/04/24 02:54:09;;;;;;;13.10;6.70;;;;;;;9.30;55.00;100173.92;109061;1256;58198;-66
2023/04/24 02:56:36;;;;;;;11.40;7.00;;;;;;;9.25;54.95;100174.17;109011;1256;58045;-66
2023/04/24 02:59:06;;;;;;;11.40;6.60;;;;;;;9.19;55.24;100174.27;109065;1256;66778;-66
2023/04/24 03:01:34;;;;;;;9.90;6.60;;;;;;;9.17;55.44;100175.29;109084;1256;60462;-67
2023/04/24 03:04:01;;;;;;;10.80;6.70;;;;;;;9.15;55.38;100175.73;109049;1256;66140;-67
2023/04/24 03:06:31;;;;;;;7.90;6.00;;;;;;;9.14;55.18;100176.20;108987;1256;58145;-66
2023/04/24 03:08:58;;;;;;;8.30;6.40;;;;;;;9.08;55.24;100177.55;108992;1256;58210;-66
2023/04/24 03:11:26;;;;;;;10.30;6.80;;;;;;;9.01;55.36;100174.79;109167;1257;67452;-66
2023/04/24 03:13:53;;;;;;;9.70;7.20;;;;;;;8.94;55.71;100174.21;109020;1257;59491;-67
2023/04/24 03:16:20;;;;;;;9.40;6.90;;;;;;;8.94;56.00;100173.75;109080;1256;64799;-67
2023/04/24 03:18:48;;;;;;;9.70;6.60;;;;;;;8.95;56.11;100173.84;109033;1256;58437;-66
2023/04/24 03:21:15;;;;;;;9.80;6.60;;;;;;;8.94;56.31;100177.76;109064;1256;58253;-66
2023/04/24 03:23:43;;;;;;;11.10;6.80;;;;;;;8.95;56.47;100178.88;109002;1256;66226;-66
2023/04/24 03:26:10;;;;;;;14.00;6.90;;;;;;;8.98;56.65;100180.59;109079;1256;60760;-66
2023/04/24 03:28:42;;;;;;;10.60;5.90;;;;;;;9.02;56.52;100182.09;109020;1256;65893;-66
2023/04/24 03:31:10;;;;;;;10.10;6.20;;;;;;;8.99;56.48;100183.72;109018;1256;58096;-66
2023/04/24 03:33:39;;;;;;;10.70;7.20;;;;;;;8.92;56.49;100184.39;109051;1257;58271;-66
2023/04/24 03:36:07;;;;;;;10.30;6.60;;;;;;;8.91;56.80;100185.55;108975;1257;66271;-66
2023/04/24 03:38:39;;;;;;;9.40;6.70;;;;;;;8.95;57.09;100189.09;108954;1257;60475;-67
2023/04/24 03:41:32;;;;;;;10.40;7.10;;;;;;;9.03;57.01;100193.08;108867;1257;65864;-67
2023/04/24 03:44:21;;;;;;;11.50;7.00;;;;;;;9.06;57.14;100192.48;108919;1257;58193;-67
2023/04/24 03:46:50;;;;;;;11.60;6.90;;;;;;;9.10;57.30;100195.62;108891;1263;58091;-70
2023/04/24 03:49:22;;;;;;;10.10;6.80;;;;;;;9.18;57.48;100194.89;108879;1257;67297;-66
2023/04/24 03:51:52;;;;;;;13.20;7.10;;;;;;;9.26;57.35;100194.27;108972;1257;60240;-66
2023/04/24 03:54:23;;;;;;;13.40;7.60;;;;;;;9.35;57.30;100196.25;108878;1263;66234;-66
2023/04/24 03:56:54;;;;;;;13.40;7.70;;;;;;;9.43;57.24;100197.02;108879;1257;58213;-66
2023/04/24 03:59:24;;;;;;;11.80;7.20;;;;;;;9.51;57.30;100196.58;108923;1257;58200;-67
2023/04/24 04:02:05;;;;;;;10.90;7.60;;;;;;;9.60;57.19;100200.44;108946;1257;67224;-66
2023/04/24 04:04:36;;;;;;;9.30;7.30;;;;;;;9.68;57.29;100199.93;108908;1257;60481;-66
2023/04/24 04:07:06;;;;;;;13.00;8.10;;;;;;;9.75;57.15;100198.00;108993;1260;64978;-66
2023/04/24 04:09:36;;;;;;;15.70;8.20;;;;;;;9.83;57.09;100200.77;108940;1260;58145;-66
2023/04/24 04:12:07;;;;;;;12.80;8.20;;;;;;;9.93;57.23;100205.73;108903;1257;58182;-66
2023/04/24 04:14:38;;;;;;;13.40;8.80;;;;;;;10.04;57.01;100207.10;108901;1257;65775;-66
2023/04/24 04:17:08;;;;;;;11.30;8.70;;;;;;;10.16;57.00;100205.45;108830;1257;60036;-65
2023/04/24 04:19:38;;;;;;;13.90;8.30;;;;;;;10.28;56.92;100200.63;108865;1257;64800;-66
2023/04/24 04:22:09;;;;;;;11.70;8.70;;;;;;;10.41;56.83;100200.16;108878;1257;58176;-66
2023/04/24 04:24:42;;;;;;;12.40;8.40;;;;;;;10.52;56.85;100199.40;108839;1257;58147;-66
2023/04/24 04:27:12;;;;;;;14.70;9.80;;;;;;;10.62;56.69;100196.10;108813;1257;66187;-67
2023/04/24 04:30:04;;;;;;;16.70;9.70;;;;;;;10.72;56.69;100195.13;108912;1257;60513;-66
2023/04/24 04:40:13;;;;;;;16.60;9.40;;;;;;;11.11;56.42;100197.83;102973;1289;600626;-66
2023/04/24 04:42:48;;;;;;;15.10;9.30;;;;;;;11.17;56.25;100197.98;104774;1269;59354;-66
2023/04/24 04:45:16;;;;;;;14.30;9.30;;;;;;;11.25;56.16;100199.63;104474;1276;59347;-66
2023/04/24 04:48:03;;;;;;;15.50;8.70;;;;;;;11.33;55.90;100200.11;104898;1275;66052;-66
2023/04/24 04:50:31;;;;;;;12.70;8.50;;;;;;;11.41;55.81;100198.91;104768;1270;60838;-69
2023/04/24 04:53:01;;;;;;;12.40;8.80;;;;;;;11.49;55.65;100195.28;104687;1266;142010;-66
2023/04/24 04:55:31;;;;;;;16.40;8.40;;;;;;;11.57;55.69;100194.05;104965;1266;59394;-67
2023/04/24 04:58:10;;;;;;;14.70;8.80;;;;;;;11.66;55.76;100195.41;105254;1264;59411;-66
2023/04/24 05:00:37;;;;;;;14.10;8.00;;;;;;;11.74;55.72;100199.31;105122;1261;64839;-66
2023/04/24 05:03:12;;;;;;;18.90;8.70;;;;;;;11.81;55.62;100197.08;105134;1266;61043;-69
2023/04/24 05:05:45;;;;;;;14.40;8.20;;;;;;;11.88;55.47;100196.45;105055;1268;65493;-68
2023/04/24 05:08:13;;;;;;;14.10;8.10;;;;;;;11.95;55.29;100190.19;105026;1266;59765;-68
2023/04/24 05:10:52;;;;;;;14.40;8.30;;;;;;;12.04;55.00;100192.98;105748;1254;59714;-67
2023/04/24 05:13:20;;;;;;;15.60;8.90;;;;;;;12.12;54.95;100190.14;105823;1258;65854;-66
2023/04/24 05:16:07;;;;;;;15.00;8.50;;;;;;;12.21;54.89;100185.59;105521;1259;60633;-67
2023/04/24 05:18:34;;;;;;;12.70;8.10;;;;;;;12.32;54.94;100181.31;105505;1257;66474;-68
2023/04/24 05:21:02;;;;;;;9.90;7.60;;;;;;;12.43;54.85;100181.86;105506;1257;59636;-68
2023/04/24 05:23:29;;;;;;;15.90;6.90;;;;;;;12.55;54.67;100181.45;105402;1273;59562;-67
2023/04/24 05:26:00;;;;;;;12.30;6.90;;;;;;;12.68;54.48;100178.15;105455;1254;65947;-71
2023/04/24 05:28:29;;;;;;;15.90;7.30;;;;;;;12.82;54.29;100175.66;105767;1260;59765;-66
2023/04/24 05:31:05;;;;;;;13.60;6.30;;;;;;;12.97;54.01;100175.54;105508;1260;65821;-67
2023/04/24 05:33:32;;;;;;;10.40;6.00;;;;;;;13.12;53.76;100176.44;105500;1261;59675;-68
2023/04/24 05:35:59;;;;;;;11.50;7.20;;;;;;;13.26;53.33;100171.70;105488;1257;60057;-68
2023/04/24 05:38:26;;;;;;;11.20;6.40;;;;;;;13.42;53.08;100176.41;105367;1261;66908;-67
2023/04/24 05:40:53;;;;;;;10.90;5.70;;;;;;;13.58;52.84;100176.48;105280;1260;61603;-66
2023/04/24 05:43:20;;;;;;;10.70;6.00;;;;;;;13.73;52.41;100175.02;105903;1256;66559;-67
2023/04/24 05:45:47;;;;;;;7.60;4.60;;;;;;;13.88;51.97;100175.37;105505;1257;59726;-66
2023/04/24 05:48:14;;;;;;;19.00;7.90;;;;;;;14.04;51.67;100172.41;105639;1260;59688;-69
2023/04/24 05:50:41;;;;;;;10.90;5.70;;;;;;;14.20;51.25;100173.48;105465;1260;66702;-67
2023/04/24 05:53:10;;;;;;;13.20;6.80;;;;;;;14.36;50.90;100169.63;105307;1261;60675;-66
2023/04/24 05:55:37;;;;;;;10.80;6.60;;;;;;;14.51;50.48;100169.73;105302;1261;66703;-69
2023/04/24 05:58:07;;;;;;;14.70;7.00;;;;;;;14.66;50.09;100170.39;105842;1255;59656;-66
2023/04/24 06:00:35;;;;;;;14.40;6.70;;;;;;;14.81;49.89;100171.02;105345;1255;59686;-70
2023/04/24 06:03:07;;;;;;;10.00;6.50;;;;;;;14.98;49.50;100169.33;105602;1257;66917;-69
2023/04/24 06:05:36;;;;;;;13.70;6.30;;;;;;;15.14;49.36;100170.13;109111;1256;57446;-66
2023/04/24 06:08:03;;;;;;;12.50;6.50;;;;;;;15.32;48.92;100170.75;109223;1256;66183;-67
2023/04/24 06:10:36;;;;;;;13.20;6.30;;;;;;;15.51;48.69;100168.33;108932;1255;57541;-67
2023/04/24 06:13:04;;;;;;;11.80;6.80;;;;;;;15.72;48.15;100170.05;109010;1257;57404;-70
2023/04/24 06:15:32;;;;;;;13.40;7.40;;;;;;;15.90;48.00;100168.36;109110;1256;65342;-67
2023/04/24 06:18:07;;;;;;;19.00;7.40;;;;;;;16.14;47.75;100171.14;109085;1257;60233;-68
2023/04/24 06:20:35;;;;;;;17.50;7.20;;;;;;;16.34;46.80;100168.69;109132;1256;65971;-67
2023/04/24 06:23:02;;;;;;;21.60;8.00;;;;;;;16.52;46.16;100168.48;109121;1255;57406;-67
2023/04/24 06:25:32;;;;;;;14.00;8.50;;;;;;;16.69;45.97;100169.44;109027;1256;57263;-69
2023/04/24 06:27:59;;;;;;;19.30;7.50;;;;;;;16.85;45.57;100168.12;109198;1256;65250;-67
2023/04/24 06:30:27;;;;;;;14.20;6.80;;;;;;;16.98;45.01;100168.98;109293;1254;60710;-67
2023/04/24 06:32:55;;;;;;;11.30;6.90;;;;;;;17.14;44.96;100175.11;109132;1256;66023;-68
2023/04/24 06:35:31;;;;;;;13.60;6.80;;;;;;;17.33;44.87;100177.06;109108;1257;57298;-66
2023/04/24 06:37:58;;;;;;;11.60;6.80;;;;;;;17.53;44.49;100175.92;109163;1256;57421;-67
2023/04/24 06:40:25;;;;;;;12.70;6.30;;;;;;;17.72;43.97;100175.05;109114;1257;66295;-67
2023/04/24 06:42:52;;;;;;;14.80;6.00;;;;;;;17.90;44.05;100177.41;109305;1257;60542;-67
2023/04/24 06:45:19;;;;;;;9.30;5.50;;;;;;;18.11;43.55;100178.45;109157;1256;66400;-69
2023/04/24 06:47:46;;;;;;;8.60;4.20;;;;;;;18.31;42.66;100181.44;109118;1256;57306;-68
2023/04/24 06:50:14;;;;;;;10.10;4.20;;;;;;;18.48;42.12;100180.20;109121;1256;57348;-70
2023/04/24 06:52:40;;;;;;;9.30;4.20;;;;;;;18.64;41.95;100175.82;109130;1257;66720;-67
2023/04/24 06:55:08;;;;;;;11.60;5.80;;;;;;;18.82;41.90;100175.32;109129;1256;60205;-67
2023/04/24 06:57:35;;;;;;;7.70;3.90;;;;;;;18.99;41.20;100170.70;109118;1256;64946;-67
2023/04/24 07:00:04;;;;;;;8.40;4.60;;;;;;;19.11;40.24;100170.15;109177;1256;57286;-67
2023/04/24 07:02:31;;;;;;;10.40;4.30;;;;;;;19.19;39.54;100173.09;109141;1256;57392;-67
2023/04/24 07:04:58;;;;;;;11.70;3.70;;;;;;;19.26;39.07;100173.67;109153;1256;66608;-67
2023/04/24 07:07:25;;;;;;;6.50;3.20;;;;;;;19.36;38.68;100177.86;109179;1257;59440;-67
2023/04/24 07:09:52;;;;;;;7.20;3.40;;;;;;;19.49;38.54;100177.35;109133;1256;66277;-66
2023/04/24 07:12:20;;;;;;;6.70;3.30;;;;;;;19.62;38.66;100175.67;109157;1256;57369;-67
2023/04/24 07:14:47;;;;;;;7.40;3.40;;;;;;;19.77;38.85;100174.71;109172;1256;57491;-66
2023/04/24 07:17:14;;;;;;;10.70;4.20;;;;;;;19.92;38.62;100174.09;109151;1257;66411;-67
2023/04/24 07:19:41;;;;;;;9.60;3.40;;;;;;;20.04;38.08;100176.28;109128;1257;60213;-67
2023/04/24 07:22:11;;;;;;;6.50;3.30;;;;;;;20.12;37.21;100175.27;109149;1256;65983;-66
2023/04/24 07:24:38;;;;;;;14.50;8.20;;;;;;;20.19;37.33;100173.46;109091;1256;57363;-67
2023/04/24 07:27:04;;;;;;;9.80;4.00;;;;;;;20.25;36.95;100171.10;109125;1256;57343;-68
2023/04/24 07:29:31;;;;;;;4.20;3.40;;;;;;;20.31;36.19;100173.59;109106;1256;65534;-67
2023/04/24 07:31:58;;;;;;;5.30;3.20;;;;;;;20.35;36.30;100170.05;109080;1256;59051;-70
2023/04/24 07:34:27;;;;;;;10.80;4.50;;;;;;;20.40;36.23;100165.95;109123;1256;66175;-71
2023/04/24 07:36:54;;;;;;;5.50;4.00;;;;;;;20.48;36.26;100167.23;109170;1257;57206;-70
2023/04/24 07:39:21;;;;;;;6.20;3.20;;;;;;;20.51;35.60;100166.33;109182;1256;57283;-70
2023/04/24 07:41:48;;;;;;;14.00;10.90;;;;;;;20.52;35.61;100165.84;109151;1256;65350;-70
2023/04/24 07:44:15;;;;;;;25.30;20.80;;;;;;;20.56;35.78;100164.77;109138;1256;60530;-70
2023/04/24 07:46:41;;;;;;;42.90;34.10;;;;;;;20.63;35.90;100163.56;109119;1257;66116;-70
2023/04/24 07:49:08;;;;;;;21.60;18.70;;;;;;;20.71;36.09;100163.58;109110;1256;57363;-71
2023/04/24 07:51:41;;;;;;;9.90;7.70;;;;;;;20.78;36.50;100166.37;109133;1256;57265;-71
2023/04/24 07:54:08;;;;;;;7.30;5.80;;;;;;;20.81;37.27;100165.90;109141;1256;66392;-69
2023/04/24 07:56:38;;;;;;;7.60;3.60;;;;;;;20.83;37.97;100166.17;109183;1256;60213;-67
2023/04/24 08:08:25;;;;;;;3.80;2.60;;;;;;;21.22;37.08;100163.46;109228;1256;57418;-67
2023/04/24 08:10:52;;;;;;;5.10;3.00;;;;;;;21.21;37.06;100162.95;109022;1256;65422;-67
2023/04/24 08:13:19;;;;;;;7.10;2.80;;;;;;;21.27;37.03;100164.98;109201;1256;59443;-68
2023/04/24 08:15:46;;;;;;;5.60;2.50;;;;;;;21.35;36.66;100165.02;109105;1256;66073;-69
2023/04/24 08:18:13;;;;;;;4.50;2.30;;;;;;;21.41;36.22;100161.09;109142;1257;57389;-69
2023/04/24 08:20:40;;;;;;;4.40;2.70;;;;;;;21.47;35.88;100160.80;109037;1256;57237;-69
2023/04/24 08:23:07;;;;;;;5.50;2.60;;;;;;;21.45;35.17;100160.42;109125;1256;64597;-69
2023/04/24 08:25:35;;;;;;;4.90;2.80;;;;;;;21.42;35.34;100159.37;109022;1256;60530;-69
2023/04/24 08:28:06;;;;;;;2.90;2.30;;;;;;;21.45;35.05;100159.09;109030;1256;66422;-71
2023/04/24 08:30:55;;;;;;;3.90;2.60;;;;;;;21.48;34.86;100157.99;109187;1256;57300;-70
2023/04/24 08:33:33;;;;;;;3.70;2.30;;;;;;;21.50;34.88;100158.24;108992;1257;57491;-71
2023/04/24 08:36:04;;;;;;;9.00;6.30;;;;;;;21.55;34.90;100160.06;109117;1256;65345;-70
2023/04/24 08:38:31;;;;;;;7.90;4.30;;;;;;;21.60;34.31;100155.49;108968;1256;60482;-70
2023/04/24 08:40:59;;;;;;;4.80;2.60;;;;;;;21.61;33.69;100154.63;109081;1256;66093;-69
2023/04/24 08:43:26;;;;;;;4.30;2.70;;;;;;;21.59;33.87;100150.02;109058;1258;57364;-70
2023/04/24 08:45:54;;;;;;;4.80;2.50;;;;;;;21.65;34.23;100147.08;109055;1260;57260;-71
2023/04/24 08:48:23;;;;;;;3.60;2.20;;;;;;;21.81;34.23;100148.11;108974;1257;66429;-70
2023/04/24 08:50:58;;;;;;;5.70;2.20;;;;;;;21.95;33.76;100143.50;109167;1256;59269;-71
2023/04/24 08:53:25;;;;;;;6.10;2.40;;;;;;;22.08;33.38;100140.80;108983;1256;66244;-71
2023/04/24 08:55:52;;;;;;;4.90;2.20;;;;;;;22.20;33.06;100141.33;109086;1256;58206;-70
2023/04/24 08:58:19;;;;;;;3.70;2.40;;;;;;;22.24;31.81;100139.31;109012;1256;58147;-74
2023/04/24 09:00:49;;;;;;;6.00;2.60;;;;;;;22.21;31.68;100134.89;109109;1256;66970;-71
2023/04/24 09:03:16;;;;;;;5.90;2.20;;;;;;;22.22;31.86;100134.97;109039;1256;60514;-72
2023/04/24 09:05:45;;;;;;;7.10;2.20;;;;;;;22.36;31.45;100127.54;108997;1256;65069;-73
2023/04/24 09:08:13;;;;;;;4.60;2.10;;;;;;;22.40;30.97;100127.24;109111;1256;58067;-72
2023/04/24 09:10:40;;;;;;;4.90;2.40;;;;;;;22.42;31.18;100121.75;109129;1256;58435;-66
2023/04/24 09:13:09;;;;;;;2.90;2.00;;;;;;;22.55;31.49;100116.02;109134;1256;66242;-72
2023/04/24 09:15:37;;;;;;;3.50;2.20;;;;;;;22.75;31.61;100112.42;109127;1256;59453;-70
2023/04/24 09:18:04;;;;;;;4.80;2.00;;;;;;;22.96;31.65;100108.29;109139;1256;66176;-78
2023/04/24 09:20:31;;;;;;;3.30;2.00;;;;;;;23.13;30.79;100107.52;108984;1257;58343;-69
2023/04/24 09:22:58;;;;;;;6.50;2.00;;;;;;;23.20;29.86;100103.33;109109;1256;58228;-69
2023/04/24 09:25:31;;;;;;;4.10;2.10;;;;;;;23.23;29.98;100103.77;109061;1256;66188;-70
2023/04/24 09:28:02;;;;;;;5.70;2.00;;;;;;;23.22;29.65;100107.41;109118;1256;59346;-69
2023/04/24 09:30:29;;;;;;;9.70;2.30;;;;;;;23.14;29.59;100103.26;109107;1256;66182;-68
2023/04/24 09:33:13;;;;;;;4.40;1.90;;;;;;;23.01;29.87;100100.13;109001;1257;58107;-68
2023/04/24 09:35:49;;;;;;;5.30;2.90;;;;;;;22.80;29.75;100106.66;109106;1257;58051;-68
2023/04/24 09:38:16;;;;;;;3.60;2.30;;;;;;;22.49;28.96;100105.32;108983;1257;67368;-68
2023/04/24 09:40:43;;;;;;;3.60;2.10;;;;;;;22.14;28.82;100109.27;109015;1257;59525;-68
2023/04/24 09:43:10;;;;;;;6.60;2.80;;;;;;;21.87;29.36;100109.58;109048;1257;66062;-68
2023/04/24 09:45:39;;;;;;;7.60;2.20;;;;;;;21.72;30.06;100108.94;109021;1257;58150;-68
2023/04/24 09:48:09;;;;;;;4.10;2.60;;;;;;;21.63;30.40;100108.70;109007;1257;58212;-68
2023/04/24 09:50:36;;;;;;;4.90;2.40;;;;;;;21.51;30.48;100106.20;108924;1257;67342;-68
2023/04/24 09:53:05;;;;;;;3.80;2.50;;;;;;;21.41;31.13;100109.91;109157;1257;60437;-68
2023/04/24 09:55:32;;;;;;;4.60;2.30;;;;;;;21.39;31.34;100112.60;108976;1257;65875;-68
2023/04/24 09:58:00;;;;;;;10.50;2.20;;;;;;;21.37;30.70;100110.85;109123;1257;58203;-68
2023/04/24 10:00:28;;;;;;;4.30;2.50;;;;;;;21.31;30.39;100106.10;108976;1257;58108;-68
2023/04/24 10:03:03;;;;;;;3.00;2.10;;;;;;;21.25;30.67;100107.58;109067;1257;67532;-68
2023/04/24 10:05:32;;;;;;;5.30;2.30;;;;;;;21.21;31.03;100105.14;109044;1257;60733;-68
2023/04/24 10:08:04;;;;;;;4.40;2.30;;;;;;;21.16;31.11;100105.27;109068;1257;65968;-68
2023/04/24 10:10:31;;;;;;;5.50;2.50;;;;;;;21.10;31.26;100104.53;108970;1257;58182;-69
2023/04/24 10:12:59;;;;;;;4.70;2.50;;;;;;;21.12;31.61;100102.15;109057;1257;58200;-68
2023/04/24 10:15:26;;;;;;;3.00;2.10;;;;;;;21.20;31.73;100104.16;109070;1258;67066;-66
2023/04/24 10:17:53;;;;;;;4.30;2.40;;;;;;;21.25;31.23;100099.08;109122;1257;59176;-67
2023/04/24 10:20:29;;;;;;;7.70;2.60;;;;;;;21.27;31.35;100099.54;109088;1257;64858;-68
2023/04/24 10:22:56;;;;;;;4.10;2.20;;;;;;;21.33;31.38;100098.43;109052;1257;58118;-67
2023/04/24 10:25:28;;;;;;;3.50;2.10;;;;;;;21.35;31.10;100096.42;108978;1257;58112;-67
2023/04/24 10:27:59;;;;;;;4.10;2.10;;;;;;;21.30;30.82;100095.23;109027;1257;66198;-67
2023/04/24 10:30:27;;;;;;;3.60;2.30;;;;;;;21.27;30.83;100097.60;109131;1257;59293;-67
2023/04/24 10:32:55;;;;;;;9.80;2.30;;;;;;;21.27;30.87;100101.61;108960;1259;65926;-67
2023/04/24 10:35:22;;;;;;;7.90;2.60;;;;;;;21.21;31.31;100103.73;108995;1259;58186;-66
2023/04/24 10:37:50;;;;;;;4.10;2.80;;;;;;;21.13;31.58;100098.31;109011;1259;58111;-70
2023/04/24 10:40:18;;;;;;;8.20;2.80;;;;;;;21.06;31.96;100096.71;108966;1259;67114;-66
2023/04/24 10:42:49;;;;;;;4.10;2.60;;;;;;;21.02;32.21;100092.95;109038;1259;59514;-67
2023/04/24 10:45:21;;;;;;;4.80;3.10;;;;;;;20.99;32.64;100091.73;108966;1259;65250;-67
2023/04/24 10:47:52;;;;;;;4.40;2.90;;;;;;;20.92;32.90;100089.91;108916;1262;58143;-67
2023/04/24 10:50:19;;;;;;;8.70;3.00;;;;;;;20.90;33.18;100090.19;108873;1262;58091;-74
2023/04/24 10:52:47;;;;;;;9.60;3.10;;;;;;;20.90;33.37;100085.94;109012;1259;66231;-66
2023/04/24 10:55:15;;;;;;;6.60;3.40;;;;;;;20.91;33.34;100083.49;109013;1259;60512;-67
2023/04/24 10:58:01;;;;;;;6.80;2.80;;;;;;;20.90;33.00;100080.48;108966;1259;64895;-68
2023/04/24 11:00:28;;;;;;;5.30;3.10;;;;;;;20.90;32.31;100081.23;109001;1259;58125;-69
2023/04/24 11:02:55;;;;;;;5.50;2.70;;;;;;;20.87;31.96;100075.68;109073;1259;58235;-69
2023/04/24 11:05:36;;;;;;;3.10;1.70;;;;;;;20.84;31.24;100067.44;109053;1259;66365;-68
2023/04/24 11:08:14;;;;;;;2.20;1.50;;;;;;;20.85;30.23;100059.64;108999;1259;59499;-68
2023/04/24 11:10:45;;;;;;;3.90;1.30;;;;;;;20.87;29.44;100050.27;109035;1259;65924;-68
2023/04/24 11:13:21;;;;;;;2.20;1.00;;;;;;;21.03;29.65;100049.23;108931;1259;58176;-68
2023/04/24 11:16:14;;;;;;;7.70;1.40;;;;;;;21.37;29.32;100049.75;108978;1259;58036;-68
2023/04/24 11:18:45;;;;;;;1.50;1.10;;;;;;;21.77;28.31;100045.00;109028;1259;67420;-68
2023/04/24 11:21:12;;;;;;;2.80;1.50;;;;;;;22.11;27.97;100041.23;108962;1259;59327;-68
2023/04/24 11:23:40;;;;;;;4.30;1.90;;;;;;;22.48;28.92;100034.30;109097;1259;64815;-68
2023/04/24 11:26:12;;;;;;;2.60;1.80;;;;;;;22.95;30.06;100034.70;109020;1259;58271;-68
2023/04/24 11:28:49;;;;;;;2.70;1.60;;;;;;;23.49;29.46;100036.35;108867;1259;58056;-68
2023/04/24 11:31:36;;;;;;;3.50;2.10;;;;;;;23.95;27.35;100027.00;109006;1259;67179;-68
2023/04/24 11:34:11;;;;;;;4.30;2.00;;;;;;;24.32;26.57;100021.94;109037;1259;60474;-69
2023/04/24 11:36:39;;;;;;;4.00;1.90;;;;;;;24.56;25.73;100017.02;108917;1259;65412;-69
2023/04/24 11:39:06;;;;;;;6.90;2.00;;;;;;;24.80;25.64;100018.20;108916;1259;58219;-69